sensor_id;sensor_type;location;lat;lon;timestamp;P1;durP1;ratioP1;P2;durP2;ratioP2
8574;SDS011;4325;42.520;27.448;2023-07-29T00:00:45;2.90;;;2.03;;
8574;SDS011;4325;42.520;27.448;2023-07-29T00:03:12;3.83;;;1.80;;
8574;SDS011;4325;42.520;27.448;2023-07-29T00:05:40;2.77;;;2.40;;
8574;SDS011;4325;42.520;27.448;2023-07-29T00:08:08;2.07;;;1.80;;
8574;SDS011;4325;42.520;27.448;2023-07-29T00:10:36;3.30;;;2.13;;
8574;SDS011;4325;42.520;27.448;2023-07-29T00:13:03;2.37;;;2.07;;
8574;SDS011;4325;42.520;27.448;2023-07-29T00:15:30;2.30;;;2.03;;
8574;SDS011;4325;42.520;27.448;2023-07-29T00:17:57;2.67;;;1.83;;
8574;SDS011;4325;42.520;27.448;2023-07-29T00:20:24;1.83;;;1.70;;
8574;SDS011;4325;42.520;27.448;2023-07-29T00:22:51;1.87;;;1.77;;
8574;SDS011;4325;42.520;27.448;2023-07-29T00:25:21;1.70;;;1.60;;
8574;SDS011;4325;42.520;27.448;2023-07-29T00:27:48;4.53;;;1.77;;
8574;SDS011;4325;42.520;27.448;2023-07-29T00:30:15;2.47;;;2.13;;
8574;SDS011;4325;42.520;27.448;2023-07-29T00:32:42;2.10;;;1.90;;
8574;SDS011;4325;42.520;27.448;2023-07-29T00:35:09;3.63;;;1.70;;
8574;SDS011;4325;42.520;27.448;2023-07-29T00:37:36;2.00;;;1.80;;
8574;SDS011;4325;42.520;27.448;2023-07-29T00:40:04;2.33;;;1.80;;
8574;SDS011;4325;42.520;27.448;2023-07-29T00:42:43;2.10;;;1.53;;
8574;SDS011;4325;42.520;27.448;2023-07-29T00:45:10;2.57;;;2.10;;
8574;SDS011;4325;42.520;27.448;2023-07-29T00:47:37;2.40;;;2.00;;
8574;SDS011;4325;42.520;27.448;2023-07-29T00:50:05;1.60;;;1.50;;
8574;SDS011;4325;42.520;27.448;2023-07-29T00:52:33;2.10;;;1.80;;
8574;SDS011;4325;42.520;27.448;2023-07-29T00:55:00;3.93;;;1.90;;
8574;SDS011;4325;42.520;27.448;2023-07-29T00:57:27;2.40;;;1.83;;
8574;SDS011;4325;42.520;27.448;2023-07-29T00:59:58;2.77;;;2.10;;
8574;SDS011;4325;42.520;27.448;2023-07-29T01:02:25;1.70;;;1.60;;
8574;SDS011;4325;42.520;27.448;2023-07-29T01:04:55;2.10;;;1.90;;
8574;SDS011;4325;42.520;27.448;2023-07-29T01:07:26;3.10;;;2.10;;
8574;SDS011;4325;42.520;27.448;2023-07-29T01:10:00;2.83;;;2.20;;
8574;SDS011;4325;42.520;27.448;2023-07-29T01:12:34;2.50;;;2.00;;
8574;SDS011;4325;42.520;27.448;2023-07-29T01:15:11;2.40;;;1.97;;
8574;SDS011;4325;42.520;27.448;2023-07-29T01:17:43;2.10;;;1.90;;
8574;SDS011;4325;42.520;27.448;2023-07-29T01:20:13;3.90;;;1.93;;
8574;SDS011;4325;42.520;27.448;2023-07-29T01:22:42;1.67;;;1.57;;
8574;SDS011;4325;42.520;27.448;2023-07-29T01:25:11;2.00;;;1.70;;
8574;SDS011;4325;42.520;27.448;2023-07-29T01:27:37;5.47;;;1.77;;
8574;SDS011;4325;42.520;27.448;2023-07-29T01:30:05;2.57;;;1.80;;
8574;SDS011;4325;42.520;27.448;2023-07-29T01:32:35;2.33;;;2.00;;
8574;SDS011;4325;42.520;27.448;2023-07-29T01:35:09;2.13;;;1.83;;
8574;SDS011;4325;42.520;27.448;2023-07-29T01:37:41;14.77;;;1.77;;
8574;SDS011;4325;42.520;27.448;2023-07-29T01:40:16;5.67;;;2.23;;
8574;SDS011;4325;42.520;27.448;2023-07-29T01:42:44;2.33;;;2.07;;
8574;SDS011;4325;42.520;27.448;2023-07-29T01:45:11;2.03;;;1.53;;
8574;SDS011;4325;42.520;27.448;2023-07-29T01:47:38;2.40;;;1.60;;
8574;SDS011;4325;42.520;27.448;2023-07-29T01:50:07;2.13;;;1.93;;
8574;SDS011;4325;42.520;27.448;2023-07-29T01:52:34;3.47;;;1.60;;
8574;SDS011;4325;42.520;27.448;2023-07-29T01:55:01;2.27;;;2.00;;
8574;SDS011;4325;42.520;27.448;2023-07-29T01:57:30;1.97;;;1.83;;
8574;SDS011;4325;42.520;27.448;2023-07-29T01:59:57;1.93;;;1.80;;
8574;SDS011;4325;42.520;27.448;2023-07-29T02:02:23;2.93;;;1.80;;
8574;SDS011;4325;42.520;27.448;2023-07-29T02:04:50;2.70;;;1.80;;
8574;SDS011;4325;42.520;27.448;2023-07-29T02:07:17;1.60;;;1.50;;
8574;SDS011;4325;42.520;27.448;2023-07-29T02:09:44;2.40;;;1.90;;
8574;SDS011;4325;42.520;27.448;2023-07-29T02:12:11;2.47;;;1.90;;
8574;SDS011;4325;42.520;27.448;2023-07-29T02:14:40;3.03;;;1.43;;
8574;SDS011;4325;42.520;27.448;2023-07-29T02:17:07;2.00;;;1.63;;
8574;SDS011;4325;42.520;27.448;2023-07-29T02:19:34;5.27;;;2.80;;
8574;SDS011;4325;42.520;27.448;2023-07-29T02:22:01;5.47;;;2.90;;
8574;SDS011;4325;42.520;27.448;2023-07-29T02:24:28;2.30;;;2.03;;
8574;SDS011;4325;42.520;27.448;2023-07-29T02:26:55;2.73;;;1.97;;
8574;SDS011;4325;42.520;27.448;2023-07-29T02:29:22;2.00;;;1.90;;
8574;SDS011;4325;42.520;27.448;2023-07-29T02:31:51;2.37;;;1.97;;
8574;SDS011;4325;42.520;27.448;2023-07-29T02:34:18;2.33;;;1.90;;
8574;SDS011;4325;42.520;27.448;2023-07-29T02:36:45;2.50;;;2.07;;
8574;SDS011;4325;42.520;27.448;2023-07-29T02:39:12;2.17;;;1.80;;
8574;SDS011;4325;42.520;27.448;2023-07-29T02:41:39;3.40;;;1.70;;
8574;SDS011;4325;42.520;27.448;2023-07-29T02:44:06;2.13;;;1.87;;
8574;SDS011;4325;42.520;27.448;2023-07-29T02:46:33;2.00;;;1.80;;
8574;SDS011;4325;42.520;27.448;2023-07-29T02:49:02;2.33;;;1.70;;
8574;SDS011;4325;42.520;27.448;2023-07-29T02:51:30;3.10;;;2.33;;
8574;SDS011;4325;42.520;27.448;2023-07-29T02:53:57;2.03;;;1.80;;
8574;SDS011;4325;42.520;27.448;2023-07-29T02:56:24;2.13;;;1.83;;
8574;SDS011;4325;42.520;27.448;2023-07-29T02:58:51;1.97;;;1.77;;
8574;SDS011;4325;42.520;27.448;2023-07-29T03:01:17;1.73;;;1.57;;
8574;SDS011;4325;42.520;27.448;2023-07-29T03:03:45;2.83;;;1.70;;
8574;SDS011;4325;42.520;27.448;2023-07-29T03:06:13;6.10;;;1.90;;
8574;SDS011;4325;42.520;27.448;2023-07-29T03:08:41;3.07;;;2.37;;
8574;SDS011;4325;42.520;27.448;2023-07-29T03:11:09;12.77;;;2.57;;
8574;SDS011;4325;42.520;27.448;2023-07-29T03:13:37;2.97;;;2.60;;
8574;SDS011;4325;42.520;27.448;2023-07-29T03:16:04;8.90;;;3.57;;
8574;SDS011;4325;42.520;27.448;2023-07-29T03:18:32;9.83;;;5.17;;
8574;SDS011;4325;42.520;27.448;2023-07-29T03:20:59;15.83;;;7.37;;
8574;SDS011;4325;42.520;27.448;2023-07-29T03:23:27;13.80;;;6.47;;
8574;SDS011;4325;42.520;27.448;2023-07-29T03:26:00;11.27;;;5.20;;
8574;SDS011;4325;42.520;27.448;2023-07-29T03:28:35;8.40;;;4.33;;
8574;SDS011;4325;42.520;27.448;2023-07-29T03:31:03;7.23;;;3.80;;
8574;SDS011;4325;42.520;27.448;2023-07-29T03:33:30;4.90;;;3.83;;
8574;SDS011;4325;42.520;27.448;2023-07-29T03:35:57;7.77;;;3.93;;
8574;SDS011;4325;42.520;27.448;2023-07-29T03:38:24;10.20;;;3.37;;
8574;SDS011;4325;42.520;27.448;2023-07-29T03:40:53;5.37;;;3.30;;
8574;SDS011;4325;42.520;27.448;2023-07-29T03:43:20;9.50;;;4.13;;
8574;SDS011;4325;42.520;27.448;2023-07-29T03:45:47;4.20;;;2.80;;
8574;SDS011;4325;42.520;27.448;2023-07-29T03:48:14;2.70;;;2.10;;
8574;SDS011;4325;42.520;27.448;2023-07-29T03:50:40;2.10;;;1.90;;
8574;SDS011;4325;42.520;27.448;2023-07-29T03:53:07;2.70;;;1.60;;
8574;SDS011;4325;42.520;27.448;2023-07-29T03:55:36;3.37;;;2.27;;
8574;SDS011;4325;42.520;27.448;2023-07-29T03:58:03;2.60;;;1.87;;
8574;SDS011;4325;42.520;27.448;2023-07-29T04:00:30;3.13;;;2.00;;
8574;SDS011;4325;42.520;27.448;2023-07-29T04:02:57;2.20;;;2.00;;
8574;SDS011;4325;42.520;27.448;2023-07-29T04:05:24;4.80;;;2.00;;
8574;SDS011;4325;42.520;27.448;2023-07-29T04:07:51;2.30;;;2.10;;
8574;SDS011;4325;42.520;27.448;2023-07-29T04:10:19;3.47;;;2.30;;
8574;SDS011;4325;42.520;27.448;2023-07-29T04:12:47;4.77;;;2.37;;
8574;SDS011;4325;42.520;27.448;2023-07-29T04:15:14;3.70;;;2.27;;
8574;SDS011;4325;42.520;27.448;2023-07-29T04:17:41;2.50;;;1.93;;
8574;SDS011;4325;42.520;27.448;2023-07-29T04:20:08;3.43;;;2.03;;
8574;SDS011;4325;42.520;27.448;2023-07-29T04:22:36;6.33;;;2.23;;
8574;SDS011;4325;42.520;27.448;2023-07-29T04:25:03;2.57;;;1.77;;
8574;SDS011;4325;42.520;27.448;2023-07-29T04:27:31;2.83;;;2.23;;
8574;SDS011;4325;42.520;27.448;2023-07-29T04:29:59;4.17;;;3.37;;
8574;SDS011;4325;42.520;27.448;2023-07-29T04:32:26;6.07;;;3.83;;
8574;SDS011;4325;42.520;27.448;2023-07-29T04:34:53;5.70;;;4.10;;
8574;SDS011;4325;42.520;27.448;2023-07-29T04:37:20;7.73;;;4.90;;
8574;SDS011;4325;42.520;27.448;2023-07-29T04:39:47;7.77;;;3.50;;
8574;SDS011;4325;42.520;27.448;2023-07-29T04:42:14;4.53;;;3.57;;
8574;SDS011;4325;42.520;27.448;2023-07-29T04:44:41;4.97;;;3.40;;
8574;SDS011;4325;42.520;27.448;2023-07-29T04:47:10;8.00;;;2.90;;
8574;SDS011;4325;42.520;27.448;2023-07-29T04:49:36;3.37;;;2.60;;
8574;SDS011;4325;42.520;27.448;2023-07-29T04:52:04;2.07;;;1.87;;
8574;SDS011;4325;42.520;27.448;2023-07-29T04:54:31;2.90;;;1.97;;
8574;SDS011;4325;42.520;27.448;2023-07-29T04:56:58;3.63;;;2.10;;
8574;SDS011;4325;42.520;27.448;2023-07-29T04:59:25;3.20;;;2.13;;
8574;SDS011;4325;42.520;27.448;2023-07-29T05:01:52;4.90;;;3.03;;
8574;SDS011;4325;42.520;27.448;2023-07-29T05:04:20;6.00;;;2.97;;
8574;SDS011;4325;42.520;27.448;2023-07-29T05:06:48;3.80;;;3.40;;
8574;SDS011;4325;42.520;27.448;2023-07-29T05:09:16;5.63;;;4.50;;
8574;SDS011;4325;42.520;27.448;2023-07-29T05:11:44;4.80;;;2.90;;
8574;SDS011;4325;42.520;27.448;2023-07-29T05:14:12;5.37;;;2.73;;
8574;SDS011;4325;42.520;27.448;2023-07-29T05:16:39;2.97;;;2.37;;
8574;SDS011;4325;42.520;27.448;2023-07-29T05:19:06;2.37;;;1.70;;
8574;SDS011;4325;42.520;27.448;2023-07-29T05:21:34;1.97;;;1.70;;
8574;SDS011;4325;42.520;27.448;2023-07-29T05:24:02;1.53;;;1.43;;
8574;SDS011;4325;42.520;27.448;2023-07-29T05:26:29;2.47;;;2.27;;
8574;SDS011;4325;42.520;27.448;2023-07-29T05:28:56;1.67;;;1.57;;
8574;SDS011;4325;42.520;27.448;2023-07-29T05:31:23;2.57;;;2.10;;
8574;SDS011;4325;42.520;27.448;2023-07-29T05:33:50;2.50;;;2.00;;
8574;SDS011;4325;42.520;27.448;2023-07-29T05:36:17;2.03;;;1.70;;
8574;SDS011;4325;42.520;27.448;2023-07-29T05:38:45;1.87;;;1.77;;
8574;SDS011;4325;42.520;27.448;2023-07-29T05:41:12;3.73;;;2.40;;
8574;SDS011;4325;42.520;27.448;2023-07-29T05:43:39;4.90;;;2.97;;
8574;SDS011;4325;42.520;27.448;2023-07-29T05:46:08;2.13;;;1.63;;
8574;SDS011;4325;42.520;27.448;2023-07-29T05:48:35;2.80;;;2.00;;
8574;SDS011;4325;42.520;27.448;2023-07-29T05:51:02;1.70;;;1.60;;
8574;SDS011;4325;42.520;27.448;2023-07-29T05:53:30;2.20;;;1.20;;
8574;SDS011;4325;42.520;27.448;2023-07-29T05:55:58;2.00;;;1.60;;
8574;SDS011;4325;42.520;27.448;2023-07-29T05:58:25;1.90;;;1.10;;
8574;SDS011;4325;42.520;27.448;2023-07-29T06:00:52;1.53;;;1.43;;
8574;SDS011;4325;42.520;27.448;2023-07-29T06:03:19;1.50;;;1.40;;
8574;SDS011;4325;42.520;27.448;2023-07-29T06:05:46;1.60;;;1.50;;
8574;SDS011;4325;42.520;27.448;2023-07-29T06:08:14;4.30;;;3.90;;
8574;SDS011;4325;42.520;27.448;2023-07-29T06:10:41;6.37;;;4.47;;
8574;SDS011;4325;42.520;27.448;2023-07-29T06:13:10;4.20;;;3.80;;
8574;SDS011;4325;42.520;27.448;2023-07-29T06:15:36;3.77;;;3.03;;
8574;SDS011;4325;42.520;27.448;2023-07-29T06:18:03;2.97;;;2.47;;
8574;SDS011;4325;42.520;27.448;2023-07-29T06:20:30;4.63;;;2.50;;
8574;SDS011;4325;42.520;27.448;2023-07-29T06:22:57;3.37;;;3.03;;
8574;SDS011;4325;42.520;27.448;2023-07-29T06:25:24;2.60;;;2.27;;
8574;SDS011;4325;42.520;27.448;2023-07-29T06:27:51;6.90;;;2.67;;
8574;SDS011;4325;42.520;27.448;2023-07-29T06:30:19;3.13;;;2.23;;
8574;SDS011;4325;42.520;27.448;2023-07-29T06:32:46;2.20;;;1.50;;
8574;SDS011;4325;42.520;27.448;2023-07-29T06:35:13;2.40;;;1.90;;
8574;SDS011;4325;42.520;27.448;2023-07-29T06:37:40;1.70;;;1.60;;
8574;SDS011;4325;42.520;27.448;2023-07-29T06:40:07;2.13;;;1.93;;
8574;SDS011;4325;42.520;27.448;2023-07-29T06:42:35;1.77;;;1.67;;
8574;SDS011;4325;42.520;27.448;2023-07-29T06:45:03;3.70;;;1.90;;
8574;SDS011;4325;42.520;27.448;2023-07-29T06:47:32;3.03;;;1.73;;
8574;SDS011;4325;42.520;27.448;2023-07-29T06:49:59;2.47;;;2.03;;
8574;SDS011;4325;42.520;27.448;2023-07-29T06:52:26;1.70;;;1.60;;
8574;SDS011;4325;42.520;27.448;2023-07-29T06:54:53;1.90;;;1.70;;
8574;SDS011;4325;42.520;27.448;2023-07-29T06:57:20;8.17;;;1.63;;
8574;SDS011;4325;42.520;27.448;2023-07-29T06:59:47;1.57;;;1.47;;
8574;SDS011;4325;42.520;27.448;2023-07-29T07:02:14;6.87;;;3.50;;
8574;SDS011;4325;42.520;27.448;2023-07-29T07:04:42;3.07;;;2.27;;
8574;SDS011;4325;42.520;27.448;2023-07-29T07:07:09;3.13;;;2.00;;
8574;SDS011;4325;42.520;27.448;2023-07-29T07:09:36;1.67;;;1.57;;
8574;SDS011;4325;42.520;27.448;2023-07-29T07:12:03;2.57;;;1.83;;
8574;SDS011;4325;42.520;27.448;2023-07-29T07:14:30;2.57;;;2.30;;
8574;SDS011;4325;42.520;27.448;2023-07-29T07:16:57;1.53;;;1.43;;
8574;SDS011;4325;42.520;27.448;2023-07-29T07:19:24;1.80;;;1.70;;
8574;SDS011;4325;42.520;27.448;2023-07-29T07:21:52;1.70;;;1.60;;
8574;SDS011;4325;42.520;27.448;2023-07-29T07:24:19;1.73;;;1.60;;
8574;SDS011;4325;42.520;27.448;2023-07-29T07:26:46;2.17;;;1.70;;
8574;SDS011;4325;42.520;27.448;2023-07-29T07:29:14;1.93;;;1.80;;
8574;SDS011;4325;42.520;27.448;2023-07-29T07:31:42;1.60;;;1.50;;
8574;SDS011;4325;42.520;27.448;2023-07-29T07:34:17;1.63;;;1.53;;
8574;SDS011;4325;42.520;27.448;2023-07-29T07:36:44;1.73;;;1.63;;
8574;SDS011;4325;42.520;27.448;2023-07-29T07:39:12;2.43;;;1.97;;
8574;SDS011;4325;42.520;27.448;2023-07-29T07:41:40;2.63;;;1.80;;
8574;SDS011;4325;42.520;27.448;2023-07-29T07:44:07;1.93;;;1.60;;
8574;SDS011;4325;42.520;27.448;2023-07-29T07:46:34;4.93;;;1.70;;
8574;SDS011;4325;42.520;27.448;2023-07-29T07:49:01;1.53;;;1.43;;
8574;SDS011;4325;42.520;27.448;2023-07-29T07:51:28;1.80;;;1.70;;
8574;SDS011;4325;42.520;27.448;2023-07-29T07:53:55;1.53;;;1.43;;
8574;SDS011;4325;42.520;27.448;2023-07-29T07:56:23;1.90;;;1.73;;
8574;SDS011;4325;42.520;27.448;2023-07-29T07:58:50;3.37;;;1.77;;
8574;SDS011;4325;42.520;27.448;2023-07-29T08:01:17;1.77;;;1.67;;
8574;SDS011;4325;42.520;27.448;2023-07-29T08:03:44;1.77;;;1.67;;
8574;SDS011;4325;42.520;27.448;2023-07-29T08:06:11;1.83;;;1.73;;
8574;SDS011;4325;42.520;27.448;2023-07-29T08:08:38;1.77;;;1.67;;
8574;SDS011;4325;42.520;27.448;2023-07-29T08:11:05;1.73;;;1.53;;
8574;SDS011;4325;42.520;27.448;2023-07-29T08:13:33;1.73;;;1.63;;
8574;SDS011;4325;42.520;27.448;2023-07-29T08:16:00;1.30;;;1.20;;
8574;SDS011;4325;42.520;27.448;2023-07-29T08:18:27;2.03;;;1.93;;
8574;SDS011;4325;42.520;27.448;2023-07-29T08:20:54;1.80;;;1.70;;
8574;SDS011;4325;42.520;27.448;2023-07-29T08:23:23;1.67;;;1.57;;
8574;SDS011;4325;42.520;27.448;2023-07-29T08:25:52;2.27;;;1.70;;
8574;SDS011;4325;42.520;27.448;2023-07-29T08:28:21;12.60;;;1.73;;
8574;SDS011;4325;42.520;27.448;2023-07-29T08:30:49;2.60;;;1.70;;
8574;SDS011;4325;42.520;27.448;2023-07-29T08:33:17;1.87;;;1.70;;
8574;SDS011;4325;42.520;27.448;2023-07-29T08:35:44;1.73;;;1.50;;
8574;SDS011;4325;42.520;27.448;2023-07-29T08:38:11;1.90;;;1.70;;
8574;SDS011;4325;42.520;27.448;2023-07-29T08:40:40;3.37;;;1.60;;
8574;SDS011;4325;42.520;27.448;2023-07-29T08:43:11;3.27;;;1.40;;
8574;SDS011;4325;42.520;27.448;2023-07-29T08:45:40;5.60;;;1.50;;
8574;SDS011;4325;42.520;27.448;2023-07-29T08:48:12;1.57;;;1.47;;
8574;SDS011;4325;42.520;27.448;2023-07-29T08:50:42;1.60;;;1.50;;
8574;SDS011;4325;42.520;27.448;2023-07-29T08:53:10;1.67;;;1.53;;
8574;SDS011;4325;42.520;27.448;2023-07-29T08:55:38;2.25;;;1.70;;
8574;SDS011;4325;42.520;27.448;2023-07-29T08:58:05;2.83;;;1.85;;
8574;SDS011;4325;42.520;27.448;2023-07-29T09:00:33;2.58;;;1.95;;
8574;SDS011;4325;42.520;27.448;2023-07-29T09:03:01;1.75;;;1.65;;
8574;SDS011;4325;42.520;27.448;2023-07-29T09:05:34;1.58;;;1.48;;
8574;SDS011;4325;42.520;27.448;2023-07-29T09:08:01;2.38;;;1.63;;
8574;SDS011;4325;42.520;27.448;2023-07-29T09:10:29;2.00;;;1.75;;
8574;SDS011;4325;42.520;27.448;2023-07-29T09:12:56;2.22;;;1.63;;
8574;SDS011;4325;42.520;27.448;2023-07-29T09:15:26;1.60;;;1.50;;
8574;SDS011;4325;42.520;27.448;2023-07-29T09:17:55;3.03;;;1.70;;
8574;SDS011;4325;42.520;27.448;2023-07-29T09:20:23;1.55;;;1.45;;
8574;SDS011;4325;42.520;27.448;2023-07-29T09:22:53;1.63;;;1.52;;
8574;SDS011;4325;42.520;27.448;2023-07-29T09:25:24;1.85;;;1.40;;
8574;SDS011;4325;42.520;27.448;2023-07-29T09:27:51;1.50;;;1.40;;
8574;SDS011;4325;42.520;27.448;2023-07-29T09:30:18;1.60;;;1.40;;
8574;SDS011;4325;42.520;27.448;2023-07-29T09:32:45;4.78;;;1.85;;
8574;SDS011;4325;42.520;27.448;2023-07-29T09:35:12;1.50;;;1.40;;
8574;SDS011;4325;42.520;27.448;2023-07-29T09:37:39;1.48;;;1.38;;
8574;SDS011;4325;42.520;27.448;2023-07-29T09:40:12;2.22;;;1.40;;
8574;SDS011;4325;42.520;27.448;2023-07-29T09:42:47;1.60;;;1.50;;
8574;SDS011;4325;42.520;27.448;2023-07-29T09:45:18;1.67;;;1.33;;
8574;SDS011;4325;42.520;27.448;2023-07-29T09:47:46;1.70;;;1.60;;
8574;SDS011;4325;42.520;27.448;2023-07-29T09:50:14;1.27;;;1.17;;
8574;SDS011;4325;42.520;27.448;2023-07-29T09:52:41;1.58;;;1.40;;
8574;SDS011;4325;42.520;27.448;2023-07-29T09:55:10;1.98;;;1.38;;
8574;SDS011;4325;42.520;27.448;2023-07-29T09:57:39;1.42;;;1.33;;
8574;SDS011;4325;42.520;27.448;2023-07-29T10:00:06;20.00;;;1.90;;
8574;SDS011;4325;42.520;27.448;2023-07-29T10:02:37;1.42;;;1.33;;
8574;SDS011;4325;42.520;27.448;2023-07-29T10:05:05;1.50;;;1.20;;
8574;SDS011;4325;42.520;27.448;2023-07-29T10:07:33;2.05;;;1.40;;
8574;SDS011;4325;42.520;27.448;2023-07-29T10:10:02;1.38;;;1.27;;
8574;SDS011;4325;42.520;27.448;2023-07-29T10:12:32;1.58;;;1.48;;
8574;SDS011;4325;42.520;27.448;2023-07-29T10:15:00;1.30;;;1.20;;
8574;SDS011;4325;42.520;27.448;2023-07-29T10:17:29;1.70;;;1.45;;
8574;SDS011;4325;42.520;27.448;2023-07-29T10:19:57;1.55;;;1.45;;
8574;SDS011;4325;42.520;27.448;2023-07-29T10:22:25;1.42;;;1.33;;
8574;SDS011;4325;42.520;27.448;2023-07-29T10:24:56;1.85;;;1.65;;
8574;SDS011;4325;42.520;27.448;2023-07-29T10:27:29;1.58;;;1.45;;
8574;SDS011;4325;42.520;27.448;2023-07-29T10:30:01;1.40;;;1.30;;
8574;SDS011;4325;42.520;27.448;2023-07-29T10:32:29;1.48;;;1.38;;
8574;SDS011;4325;42.520;27.448;2023-07-29T10:34:57;1.05;;;1.02;;
8574;SDS011;4325;42.520;27.448;2023-07-29T10:37:24;3.10;;;1.63;;
8574;SDS011;4325;42.520;27.448;2023-07-29T10:39:52;1.63;;;1.48;;
8574;SDS011;4325;42.520;27.448;2023-07-29T10:42:20;1.33;;;1.20;;
8574;SDS011;4325;42.520;27.448;2023-07-29T10:44:52;1.75;;;1.30;;
8574;SDS011;4325;42.520;27.448;2023-07-29T10:47:23;6.32;;;2.22;;
8574;SDS011;4325;42.520;27.448;2023-07-29T10:49:51;2.28;;;1.33;;
8574;SDS011;4325;42.520;27.448;2023-07-29T10:52:30;2.45;;;1.40;;
8574;SDS011;4325;42.520;27.448;2023-07-29T10:55:22;1.90;;;1.80;;
8574;SDS011;4325;42.520;27.448;2023-07-29T10:57:51;1.65;;;1.17;;
8574;SDS011;4325;42.520;27.448;2023-07-29T11:00:20;1.50;;;1.40;;
8574;SDS011;4325;42.520;27.448;2023-07-29T11:02:56;1.52;;;1.42;;
8574;SDS011;4325;42.520;27.448;2023-07-29T11:05:26;1.52;;;1.42;;
8574;SDS011;4325;42.520;27.448;2023-07-29T11:07:53;1.30;;;1.20;;
8574;SDS011;4325;42.520;27.448;2023-07-29T11:10:19;1.35;;;1.25;;
8574;SDS011;4325;42.520;27.448;2023-07-29T11:12:48;2.88;;;1.60;;
8574;SDS011;4325;42.520;27.448;2023-07-29T11:15:24;2.17;;;1.40;;
8574;SDS011;4325;42.520;27.448;2023-07-29T11:17:53;1.05;;;1.05;;
8574;SDS011;4325;42.520;27.448;2023-07-29T11:20:23;1.25;;;1.13;;
8574;SDS011;4325;42.520;27.448;2023-07-29T11:22:51;1.77;;;1.23;;
8574;SDS011;4325;42.520;27.448;2023-07-29T11:25:19;1.20;;;1.10;;
8574;SDS011;4325;42.520;27.448;2023-07-29T11:27:48;1.30;;;1.20;;
8574;SDS011;4325;42.520;27.448;2023-07-29T11:30:15;1.38;;;1.27;;
8574;SDS011;4325;42.520;27.448;2023-07-29T11:32:44;1.42;;;1.33;;
8574;SDS011;4325;42.520;27.448;2023-07-29T11:35:12;1.40;;;1.23;;
8574;SDS011;4325;42.520;27.448;2023-07-29T11:37:41;1.30;;;1.20;;
8574;SDS011;4325;42.520;27.448;2023-07-29T11:40:09;3.30;;;1.45;;
8574;SDS011;4325;42.520;27.448;2023-07-29T11:42:36;1.55;;;1.45;;
8574;SDS011;4325;42.520;27.448;2023-07-29T11:45:04;1.85;;;1.27;;
8574;SDS011;4325;42.520;27.448;2023-07-29T11:47:33;1.10;;;1.10;;
8574;SDS011;4325;42.520;27.448;2023-07-29T11:50:04;1.38;;;1.17;;
8574;SDS011;4325;42.520;27.448;2023-07-29T11:52:34;1.33;;;1.23;;
8574;SDS011;4325;42.520;27.448;2023-07-29T11:55:02;1.27;;;1.17;;
8574;SDS011;4325;42.520;27.448;2023-07-29T11:57:30;1.30;;;1.20;;
8574;SDS011;4325;42.520;27.448;2023-07-29T11:59:57;1.70;;;1.38;;
8574;SDS011;4325;42.520;27.448;2023-07-29T12:02:24;2.75;;;1.10;;
8574;SDS011;4325;42.520;27.448;2023-07-29T12:04:52;1.17;;;1.08;;
8574;SDS011;4325;42.520;27.448;2023-07-29T12:07:21;1.30;;;1.20;;
8574;SDS011;4325;42.520;27.448;2023-07-29T12:09:48;1.33;;;1.23;;
8574;SDS011;4325;42.520;27.448;2023-07-29T12:12:16;13.40;;;1.52;;
8574;SDS011;4325;42.520;27.448;2023-07-29T12:14:43;1.10;;;1.10;;
8574;SDS011;4325;42.520;27.448;2023-07-29T12:17:11;1.50;;;1.40;;
8574;SDS011;4325;42.520;27.448;2023-07-29T12:19:39;1.40;;;1.27;;
8574;SDS011;4325;42.520;27.448;2023-07-29T12:22:07;1.33;;;1.23;;
8574;SDS011;4325;42.520;27.448;2023-07-29T12:24:37;1.67;;;1.42;;
8574;SDS011;4325;42.520;27.448;2023-07-29T12:27:09;2.35;;;2.15;;
8574;SDS011;4325;42.520;27.448;2023-07-29T12:29:39;2.70;;;1.17;;
8574;SDS011;4325;42.520;27.448;2023-07-29T12:32:07;2.17;;;1.63;;
8574;SDS011;4325;42.520;27.448;2023-07-29T12:34:37;0.95;;;0.95;;
8574;SDS011;4325;42.520;27.448;2023-07-29T12:37:05;1.50;;;1.00;;
8574;SDS011;4325;42.520;27.448;2023-07-29T12:39:33;2.35;;;1.30;;
8574;SDS011;4325;42.520;27.448;2023-07-29T12:42:03;1.08;;;0.98;;
8574;SDS011;4325;42.520;27.448;2023-07-29T12:44:31;1.80;;;1.20;;
8574;SDS011;4325;42.520;27.448;2023-07-29T12:47:00;2.45;;;1.33;;
8574;SDS011;4325;42.520;27.448;2023-07-29T12:49:28;1.30;;;1.20;;
8574;SDS011;4325;42.520;27.448;2023-07-29T12:51:55;1.10;;;1.00;;
8574;SDS011;4325;42.520;27.448;2023-07-29T12:54:22;1.10;;;1.10;;
8574;SDS011;4325;42.520;27.448;2023-07-29T12:56:49;1.48;;;1.20;;
8574;SDS011;4325;42.520;27.448;2023-07-29T12:59:18;1.27;;;1.10;;
8574;SDS011;4325;42.520;27.448;2023-07-29T13:01:45;1.20;;;1.20;;
8574;SDS011;4325;42.520;27.448;2023-07-29T13:04:12;3.40;;;1.48;;
8574;SDS011;4325;42.520;27.448;2023-07-29T13:06:39;1.77;;;1.20;;
8574;SDS011;4325;42.520;27.448;2023-07-29T13:09:05;4.03;;;1.30;;
8574;SDS011;4325;42.520;27.448;2023-07-29T13:11:32;1.00;;;1.00;;
8574;SDS011;4325;42.520;27.448;2023-07-29T13:13:59;1.08;;;1.08;;
8574;SDS011;4325;42.520;27.448;2023-07-29T13:16:28;1.45;;;1.10;;
8574;SDS011;4325;42.520;27.448;2023-07-29T13:18:55;1.58;;;1.30;;
8574;SDS011;4325;42.520;27.448;2023-07-29T13:21:22;1.05;;;1.00;;
8574;SDS011;4325;42.520;27.448;2023-07-29T13:23:50;1.42;;;1.20;;
8574;SDS011;4325;42.520;27.448;2023-07-29T13:26:17;1.42;;;1.33;;
8574;SDS011;4325;42.520;27.448;2023-07-29T13:28:44;1.33;;;1.23;;
8574;SDS011;4325;42.520;27.448;2023-07-29T13:31:11;4.88;;;1.65;;
8574;SDS011;4325;42.520;27.448;2023-07-29T13:33:40;1.33;;;1.23;;
8574;SDS011;4325;42.520;27.448;2023-07-29T13:36:07;1.23;;;1.13;;
8574;SDS011;4325;42.520;27.448;2023-07-29T13:38:34;1.30;;;1.20;;
8574;SDS011;4325;42.520;27.448;2023-07-29T13:41:01;4.80;;;1.35;;
8574;SDS011;4325;42.520;27.448;2023-07-29T13:43:28;2.28;;;1.40;;
8574;SDS011;4325;42.520;27.448;2023-07-29T13:45:55;1.40;;;1.23;;
8574;SDS011;4325;42.520;27.448;2023-07-29T13:48:22;1.48;;;1.38;;
8574;SDS011;4325;42.520;27.448;2023-07-29T13:50:50;1.38;;;1.27;;
8574;SDS011;4325;42.520;27.448;2023-07-29T13:53:17;1.50;;;1.40;;
8574;SDS011;4325;42.520;27.448;2023-07-29T13:55:44;1.52;;;1.38;;
8574;SDS011;4325;42.520;27.448;2023-07-29T13:58:11;1.92;;;1.40;;
8574;SDS011;4325;42.520;27.448;2023-07-29T14:00:38;1.63;;;1.38;;
8574;SDS011;4325;42.520;27.448;2023-07-29T14:03:05;1.20;;;1.10;;
8574;SDS011;4325;42.520;27.448;2023-07-29T14:05:32;2.10;;;1.90;;
8574;SDS011;4325;42.520;27.448;2023-07-29T14:08:00;22.15;;;8.05;;
8574;SDS011;4325;42.520;27.448;2023-07-29T14:10:27;19.15;;;7.40;;
8574;SDS011;4325;42.520;27.448;2023-07-29T14:12:54;4.13;;;2.30;;
8574;SDS011;4325;42.520;27.448;2023-07-29T14:15:21;4.35;;;2.05;;
8574;SDS011;4325;42.520;27.448;2023-07-29T14:17:48;2.60;;;1.70;;
8574;SDS011;4325;42.520;27.448;2023-07-29T14:20:15;4.28;;;2.13;;
8574;SDS011;4325;42.520;27.448;2023-07-29T14:22:42;4.97;;;2.58;;
8574;SDS011;4325;42.520;27.448;2023-07-29T14:25:10;3.83;;;1.80;;
8574;SDS011;4325;42.520;27.448;2023-07-29T14:27:37;3.17;;;1.90;;
8574;SDS011;4325;42.520;27.448;2023-07-29T14:30:05;3.83;;;1.88;;
8574;SDS011;4325;42.520;27.448;2023-07-29T14:32:32;2.00;;;1.70;;
8574;SDS011;4325;42.520;27.448;2023-07-29T14:34:59;2.08;;;1.50;;
8574;SDS011;4325;42.520;27.448;2023-07-29T14:37:29;1.65;;;1.55;;
8574;SDS011;4325;42.520;27.448;2023-07-29T14:39:56;3.88;;;1.73;;
8574;SDS011;4325;42.520;27.448;2023-07-29T14:42:25;1.95;;;1.83;;
8574;SDS011;4325;42.520;27.448;2023-07-29T14:44:52;2.10;;;1.60;;
8574;SDS011;4325;42.520;27.448;2023-07-29T14:47:20;2.80;;;2.10;;
8574;SDS011;4325;42.520;27.448;2023-07-29T14:49:47;1.63;;;1.45;;
8574;SDS011;4325;42.520;27.448;2023-07-29T14:52:14;2.25;;;1.90;;
8574;SDS011;4325;42.520;27.448;2023-07-29T14:54:41;1.70;;;1.45;;
8574;SDS011;4325;42.520;27.448;2023-07-29T14:57:09;1.50;;;1.40;;
8574;SDS011;4325;42.520;27.448;2023-07-29T14:59:37;1.60;;;1.50;;
8574;SDS011;4325;42.520;27.448;2023-07-29T15:02:05;2.40;;;1.40;;
8574;SDS011;4325;42.520;27.448;2023-07-29T15:04:33;1.83;;;1.38;;